Boston Pilot Mystic — VHF20 — position and weather

sailwx.info

Track history (hours):
 
Tides and Currents Weather Stations Pressure Air Temp Water Temp Dewpoint Dewpoint Depression Visibility Wind Speed Wind Dir Waves Ship Positions

Boston Pilot Mystic

Last reported at 2018-May-28 09:30 UTC. Time now 2018-May-28 09:34 UTC.
Position N 42°22' W 071°02'.

Length 16 m; draft 1.5 m.

Type: Pilot. MMSI: 367029020.

Date/timePositionNaut miles runAvg speedWind from/ knotsBaromVisibWave heightAir tempDewpointWater temp
2018-May-28 09:30N 42°22' W 071°02'0 0.0
2018-May-28 09:00N 42°22' W 071°02'0 0.0
2018-May-28 08:30N 42°22' W 071°02'34108.7
2018-May-28 08:30N 42°20' W 070°58'4 7.6
2018-May-28 08:00N 42°22' W 071°03'0111.8
2018-May-28 08:00N 42°22' W 071°02'1 2.6
2018-May-28 07:30N 42°23' W 071°03'1468.1
2018-May-28 07:30N 42°22' W 071°02'0 0.0
2018-May-28 07:00N 42°22' W 071°02'1671.4
2018-May-28 07:00N 42°23' W 071°03'1 2.7
2018-May-28 06:30N 42°22' W 071°02'071.7
2018-May-28 06:30N 42°22' W 071°02'0 0.0
2018-May-28 06:00N 42°22' W 071°02'0 0.0
2018-May-28 05:30N 42°22' W 071°02'0 0.0
2018-May-28 05:00N 42°22' W 071°02'064.8
2018-May-28 05:00N 42°22' W 071°02'0 0.0
2018-May-28 04:30N 42°22' W 071°02'0 0.0
2018-May-28 04:01N 42°22' W 071°02'0 9.3
2018-May-28 04:00N 42°22' W 071°02'0 0.0
2018-May-28 03:30N 42°22' W 071°02'064.8
2018-May-28 03:30N 42°22' W 071°02'0 0.0
2018-May-28 03:00N 42°22' W 071°02'0 0.0
2018-May-28 02:31N 42°22' W 071°02'0 3.8
2018-May-28 02:30N 42°22' W 071°02'0 0.0
2018-May-28 02:00N 42°22' W 071°02'0 8.6
2018-May-28 02:00N 42°22' W 071°02'0 0.0
2018-May-28 01:30N 42°22' W 071°02'0 0.0
2018-May-28 01:01N 42°22' W 071°02'0 3.4
2018-May-28 01:00N 42°22' W 071°02'0 0.0
2018-May-28 00:31N 42°22' W 071°02'5935.8
2018-May-28 00:30N 42°22' W 070°56'0 0.6
2018-May-28 00:00N 42°22' W 070°55'517159.0
2018-May-28 00:00N 42°22' W 071°02'0 0.0
2018-May-27 23:31N 42°22' W 071°02'2511.0
2018-May-27 23:30N 42°20' W 071°00'2 4.0
2018-May-27 23:00N 42°22' W 071°02'1 2.3
2018-May-27 22:30N 42°21' W 071°02'14223.4
2018-May-27 22:30N 42°22' W 071°02'0 0.0
2018-May-27 22:00N 42°22' W 071°02'0 1.1
2018-May-27 22:00N 42°22' W 071°02'1 1.9
2018-May-27 21:31N 42°22' W 071°03'1274.1
2018-May-27 21:30N 42°22' W 071°02'0 0.0
2018-May-27 21:00N 42°22' W 071°02'0 0.0
2018-May-27 20:30N 42°22' W 071°02'0 0.0
2018-May-27 20:00N 42°22' W 071°02'0 0.0
2018-May-27 19:30N 42°22' W 071°02'064.8
2018-May-27 19:30N 42°22' W 071°02'3 7.0
2018-May-27 19:00N 42°20' W 070°58'312570.4
2018-May-27 19:00N 42°22' W 071°02'0 0.0
2018-May-27 18:30N 42°22' W 071°02'725958.5
2018-May-27 18:30N 42°23' W 070°52'612.1
2018-May-27 18:00N 42°20' W 070°59'3 5.2
2018-May-27 17:30N 42°22' W 071°02'0 0.0
2018-May-27 17:00N 42°22' W 071°02'0 0.0
2018-May-27 16:30N 42°22' W 071°02'0 0.0
2018-May-27 16:00N 42°22' W 071°02'043.2
2018-May-27 16:00N 42°22' W 071°02'0 0.0
2018-May-27 15:30N 42°22' W 071°02'0 0.0
2018-May-27 15:00N 42°22' W 071°02'066.7
2018-May-27 15:00N 42°22' W 071°02'0 0.0
2018-May-27 14:30N 42°22' W 071°02'0 0.0
2018-May-27 14:00N 42°22' W 071°02'0 1.0
2018-May-27 14:00N 42°22' W 071°02'0 0.0
2018-May-27 13:30N 42°22' W 071°02'064.8
2018-May-27 13:30N 42°22' W 071°02'0 0.0
2018-May-27 13:00N 42°22' W 071°02'064.8
2018-May-27 13:00N 42°22' W 071°02'0 0.0
2018-May-27 12:30N 42°22' W 071°02'0 0.0
2018-May-27 12:00N 42°22' W 071°02'0 0.0
2018-May-27 11:31N 42°22' W 071°02'3539.1
2018-May-27 11:30N 42°20' W 070°58'3 6.3
2018-May-27 11:00N 42°22' W 071°02'816.0
2018-May-27 10:30N 42°24' W 070°52'87185.6
2018-May-27 10:30N 42°22' W 071°02'5 9.4
2018-May-27 10:01N 42°22' W 070°56'52419.2
2018-May-27 10:00N 42°22' W 071°02'0 0.0
2018-May-27 09:30N 42°22' W 071°02'1145.8
2018-May-27 09:30N 42°21' W 071°02'1 2.4
2018-May-27 09:00N 42°22' W 071°02'4 8.4
2018-May-27 08:30N 42°21' W 070°56'510.3
2018-May-27 08:01N 42°24' W 070°51'94395.8
2018-May-27 08:00N 42°22' W 071°02'611.5
2018-May-27 07:30N 42°22' W 070°54'620702.2
2018-May-27 07:30N 42°22' W 071°02'1 2.7
2018-May-27 07:00N 42°21' W 071°01'14813.7
2018-May-27 07:00N 42°22' W 071°02'0 0.0
2018-May-27 06:30N 42°22' W 071°02'0 0.0
2018-May-27 06:01N 42°22' W 071°02'0 5.4
2018-May-27 06:00N 42°22' W 071°02'0 0.0
2018-May-27 05:31N 42°22' W 071°02'0 3.4
2018-May-27 05:30N 42°22' W 071°02'0 0.0
2018-May-27 05:00N 42°22' W 071°02'0 0.0
2018-May-27 04:31N 42°22' W 071°02'0 7.2
2018-May-27 04:30N 42°22' W 071°02'0 0.0
2018-May-27 04:00N 42°22' W 071°02'0 0.0
2018-May-27 03:30N 42°22' W 071°02'0 0.0
2018-May-27 03:00N 42°22' W 071°02'0 0.0
2018-May-27 02:30N 42°22' W 071°02'0 0.0
2018-May-27 02:00N 42°22' W 071°02'032.4
2018-May-27 02:00N 42°22' W 071°02'0 0.0
2018-May-27 01:30N 42°22' W 071°02'28423.5
2018-May-27 01:30N 42°20' W 070°59'2 4.7
2018-May-27 01:01N 42°22' W 071°02'7885.0
2018-May-27 01:00N 42°23' W 070°52'715.0
2018-May-27 00:31N 42°22' W 071°02'3618.2
2018-May-27 00:30N 42°20' W 070°58'3 6.5
2018-May-27 00:00N 42°22' W 071°02'1137.0
2018-May-27 00:00N 42°21' W 071°02'1 2.2
2018-May-26 23:30N 42°22' W 071°02'037.0
2018-May-26 23:30N 42°22' W 071°02'0 0.0
2018-May-26 23:00N 42°22' W 071°02'026.9
2018-May-26 23:00N 42°22' W 071°02'0 0.0
2018-May-26 22:30N 42°22' W 071°02'021.6
2018-May-26 22:30N 42°22' W 071°02'0 0.0
2018-May-26 22:00N 42°22' W 071°02'2 4.0
2018-May-26 21:30N 42°20' W 070°60'2795.0
2018-May-26 21:30N 42°22' W 071°02'0 0.0
2018-May-26 21:00N 42°22' W 071°02'0 0.0
2018-May-26 20:30N 42°22' W 071°02'0 0.0
2018-May-26 20:00N 42°22' W 071°02'14364.3
2018-May-26 20:00N 42°21' W 071°02'1 2.5
2018-May-26 19:30N 42°22' W 071°02'0 0.0
2018-May-26 19:00N 42°22' W 071°02'0 0.0
2018-May-26 18:30N 42°22' W 071°02'064.8
2018-May-26 18:30N 42°22' W 071°02'0 0.0
2018-May-26 18:00N 42°22' W 071°02'0 0.0
2018-May-26 17:30N 42°22' W 071°02'0 0.0
2018-May-26 17:00N 42°22' W 071°02'0 0.0
2018-May-26 16:31N 42°22' W 071°02'0 0.0
2018-May-26 16:00N 42°22' W 071°02'0 0.0
2018-May-26 15:30N 42°22' W 071°02'0 0.0
2018-May-26 15:00N 42°22' W 071°02'064.8
2018-May-26 15:00N 42°22' W 071°02'0 0.0
2018-May-26 14:30N 42°22' W 071°02'0 2.0
2018-May-26 14:30N 42°22' W 071°02'0 0.0
2018-May-26 14:00N 42°22' W 071°02'0 0.0
2018-May-26 13:30N 42°22' W 071°02'064.8
2018-May-26 13:30N 42°22' W 071°02'0 0.0
2018-May-26 13:00N 42°22' W 071°02'0 0.0
2018-May-26 12:30N 42°22' W 071°02'0 0.0
2018-May-26 12:00N 42°22' W 071°02'0 0.0
2018-May-26 11:30N 42°22' W 071°02'510.3
2018-May-26 11:00N 42°22' W 070°55'2 4.8
2018-May-26 10:31N 42°23' W 070°52'71395.8
2018-May-26 10:30N 42°22' W 071°02'0 0.0
2018-May-26 10:00N 42°22' W 071°02'0 0.0
2018-May-26 09:30N 42°22' W 071°02'0 0.0
2018-May-26 09:00N 42°22' W 071°02'015.1
2018-May-26 09:00N 42°22' W 071°02'0 0.1
2018-May-26 08:30N 42°22' W 071°02'65446.5
2018-May-26 08:30N 42°22' W 070°54'2 4.4
2018-May-26 08:00N 42°23' W 070°51'82396.2
2018-May-26 08:00N 42°22' W 071°02'2 3.6
2018-May-26 07:30N 42°21' W 071°00'2 3.6
2018-May-26 07:00N 42°22' W 071°02'11919.1
2018-May-26 07:00N 42°21' W 071°02'1 1.1
2018-May-26 06:30N 42°22' W 071°02'0 0.0
2018-May-26 05:30N 42°22' W 071°02'0 0.0
2018-May-26 05:00N 42°22' W 071°02'064.8
2018-May-26 05:00N 42°22' W 071°02'0 0.0
2018-May-26 04:30N 42°22' W 071°02'0 0.0
2018-May-26 04:00N 42°22' W 071°02'0 0.0
2018-May-26 03:30N 42°22' W 071°02'0 0.0
2018-May-26 03:00N 42°22' W 071°02'043.2
2018-May-26 03:00N 42°22' W 071°02'0 0.0
2018-May-26 02:30N 42°22' W 071°02'0 4.1
2018-May-26 02:30N 42°22' W 071°02'0 0.0
2018-May-26 02:00N 42°22' W 071°02'0 0.0
2018-May-26 01:31N 42°22' W 071°02'064.8
2018-May-26 01:31N 42°22' W 071°02'1 2.3
2018-May-26 01:00N 42°21' W 071°02'1 2.3
2018-May-26 00:30N 42°22' W 071°02'0 0.0
2018-May-26 00:00N 42°22' W 071°02'0 0.0
2018-May-25 23:30N 42°22' W 071°02'72115.8
2018-May-25 23:30N 42°23' W 070°53'714.2
2018-May-25 23:00N 42°22' W 071°02'81696.4
2018-May-25 23:00N 42°23' W 070°52'713.4
2018-May-25 22:30N 42°21' W 071°00'26047.4
2018-May-25 22:30N 42°22' W 071°02'0 0.0
2018-May-25 22:00N 42°22' W 071°02'0 0.0
2018-May-25 21:30N 42°22' W 071°02'026.9
2018-May-25 21:30N 42°22' W 071°02'0 0.0
2018-May-25 21:00N 42°22' W 071°02'0 0.0
2018-May-25 20:30N 42°22' W 071°02'0 0.0
2018-May-25 20:00N 42°22' W 071°02'01190.7
2018-May-25 20:00N 42°21' W 071°02'0 0.7
2018-May-25 19:30N 42°22' W 071°02'0 0.0
2018-May-25 19:00N 42°22' W 071°02'0 0.0
2018-May-25 18:30N 42°22' W 071°02'82147.8
2018-May-25 18:30N 42°25' W 070°51'3 5.6
2018-May-25 18:00N 42°22' W 070°52'75276.8
2018-May-25 18:00N 42°22' W 071°02'0 0.0
2018-May-25 17:30N 42°22' W 071°02'0 0.0
2018-May-25 17:00N 42°22' W 071°02'6136.8
2018-May-25 16:58N 42°25' W 070°55'613.5
2018-May-25 16:30N 42°22' W 071°02'61694.4
2018-May-25 16:30N 42°25' W 070°55'612.4
2018-May-25 16:01N 42°22' W 071°02'2 3.2
2018-May-25 15:30N 42°21' W 071°00'2 4.1
2018-May-25 15:00N 42°22' W 071°03'0 1.0
2018-May-25 14:30N 42°22' W 071°02'2691.6
2018-May-25 14:30N 42°23' W 071°03'2 3.1
2018-May-25 14:00N 42°22' W 071°02'0 0.0
2018-May-25 13:30N 42°22' W 071°02'0 0.0
2018-May-25 13:00N 42°22' W 071°02'0 0.0
2018-May-25 12:30N 42°22' W 071°02'026.9
2018-May-25 12:30N 42°22' W 071°02'0 0.0
2018-May-25 12:00N 42°22' W 071°02'1 2.7
2018-May-25 11:30N 42°23' W 071°03'1606.2
2018-May-25 11:30N 42°22' W 071°02'0 0.0
2018-May-25 11:00N 42°22' W 071°02'0 0.0
2018-May-25 10:31N 42°22' W 071°02'0 0.0
2018-May-25 10:01N 42°22' W 071°02'1034451.9
2018-May-25 10:00N 42°24' W 070°49'1019.0
2018-May-25 09:30N 42°22' W 071°02'5227.8
2018-May-25 09:29N 42°21' W 070°56'5 9.7
2018-May-25 09:01N 42°22' W 071°02'057.0
2018-May-25 09:00N 42°22' W 071°02'0 0.0
2018-May-25 08:30N 42°22' W 071°02'0 0.0
2018-May-25 08:00N 42°22' W 071°02'0 0.0
2018-May-25 07:30N 42°22' W 071°02'0 0.0
2018-May-25 07:00N 42°22' W 071°02'0 0.0
2018-May-25 06:30N 42°22' W 071°02'0 0.0
2018-May-25 06:00N 42°22' W 071°02'0 0.0
2018-May-25 05:30N 42°22' W 071°02'0 0.0
2018-May-25 05:00N 42°22' W 071°02'0 0.0
2018-May-25 04:30N 42°22' W 071°02'0 0.0
2018-May-25 04:00N 42°22' W 071°02'0 0.0
2018-May-25 03:30N 42°22' W 071°02'043.2
2018-May-25 03:30N 42°22' W 071°02'0 0.0
2018-May-25 03:00N 42°22' W 071°02'0 0.0
2018-May-25 02:30N 42°22' W 071°02'0 0.0
2018-May-25 02:01N 42°22' W 071°02'0 0.0
2018-May-25 01:30N 42°22' W 071°02'01243.3
2018-May-25 01:30N 42°21' W 071°02'0 0.7
2018-May-25 01:00N 42°22' W 071°02'0 0.0
2018-May-25 00:30N 42°22' W 071°02'35470.4
2018-May-25 00:30N 42°20' W 070°59'3 6.1
2018-May-25 00:00N 42°22' W 071°02'1 2.4
2018-May-24 23:30N 42°21' W 071°01'510.0
2018-May-24 23:00N 42°22' W 070°55'518690.5
2018-May-24 23:00N 42°22' W 071°02'3 6.2
2018-May-24 22:30N 42°20' W 070°58'311125.1
2018-May-24 22:30N 42°22' W 071°02'0 0.0
2018-May-24 22:00N 42°22' W 071°02'0 0.0
2018-May-24 21:30N 42°22' W 071°02'0 0.0
2018-May-24 21:00N 42°22' W 071°02'021.6
2018-May-24 21:00N 42°22' W 071°02'0 0.0
2018-May-24 20:31N 42°22' W 071°02'0 0.0
2018-May-24 20:00N 42°22' W 071°02'0 0.0
2018-May-24 19:30N 42°22' W 071°02'0 0.0
2018-May-24 19:00N 42°22' W 071°02'0 0.0
2018-May-24 18:30N 42°22' W 071°02'066.7
2018-May-24 18:30N 42°22' W 071°02'0 0.0
2018-May-24 18:00N 42°22' W 071°02'0 0.0
2018-May-24 17:30N 42°22' W 071°02'0 0.0
2018-May-24 17:00N 42°22' W 071°02'0 0.0
2018-May-24 16:30N 42°22' W 071°02'0 0.0
2018-May-24 16:00N 42°22' W 071°02'0 0.0
2018-May-24 15:31N 42°22' W 071°02'0 0.0
2018-May-24 15:00N 42°22' W 071°02'0 0.0
2018-May-24 14:30N 42°22' W 071°02'064.8
2018-May-24 14:30N 42°22' W 071°02'0 0.0
2018-May-24 14:01N 42°22' W 071°02'0 0.0
2018-May-24 13:30N 42°22' W 071°02'0 0.0
2018-May-24 09:00N 42°22' W 071°02'1 1.8
2018-May-24 08:30N 42°21' W 071°01'1 1.8
2018-May-24 08:01N 42°22' W 071°02'0 0.0
2018-May-24 07:30N 42°22' W 071°02'046.1
2018-May-24 07:30N 42°22' W 071°02'0 0.0
2018-May-24 07:00N 42°22' W 071°02'0 0.0
2018-May-24 06:30N 42°22' W 071°02'0 0.0
2018-May-24 06:00N 42°22' W 071°02'0 0.0
2018-May-24 05:30N 42°22' W 071°02'0 0.0
2018-May-24 05:00N 42°22' W 071°02'0 0.0
2018-May-24 04:30N 42°22' W 071°02'0 0.4
2018-May-24 04:29N 42°22' W 071°02'0 0.0
2018-May-24 04:00N 42°22' W 071°02'064.8
2018-May-24 04:00N 42°22' W 071°02'0 0.0
2018-May-24 03:30N 42°22' W 071°02'0 0.0
2018-May-24 03:00N 42°22' W 071°02'0 0.0
2018-May-24 02:30N 42°22' W 071°02'0 0.0
2018-May-24 02:00N 42°22' W 071°02'0 0.0
2018-May-24 01:30N 42°22' W 071°02'0 0.0
2018-May-24 01:01N 42°22' W 071°02'0 7.2
2018-May-24 01:00N 42°22' W 071°02'0 0.0
2018-May-24 00:31N 42°22' W 071°02'0 0.0
2018-May-24 00:00N 42°22' W 071°02'519199.4
2018-May-24 00:00N 42°22' W 070°55'510.6
2018-May-23 23:30N 42°22' W 071°02'21226.7
2018-May-23 23:30N 42°20' W 070°60'2 4.8
2018-May-23 23:00N 42°22' W 071°02'12144.4
2018-May-23 23:00N 42°21' W 071°01'0 0.8
2018-May-23 22:30N 42°21' W 071°01'1295.4
2018-May-23 22:30N 42°22' W 071°02'0 0.0
2018-May-23 22:00N 42°22' W 071°02'013.4
2018-May-23 22:00N 42°22' W 071°02'0 0.0
2018-May-23 21:30N 42°22' W 071°02'026.9
2018-May-23 21:30N 42°22' W 071°02'0 0.0
2018-May-23 21:00N 42°22' W 071°02'1 1.6
2018-May-23 20:30N 42°21' W 071°01'1 1.6
2018-May-23 20:01N 42°22' W 071°02'0 0.0
2018-May-23 19:30N 42°22' W 071°02'917.6
2018-May-23 19:01N 42°24' W 070°51'96293.8
2018-May-23 19:00N 42°22' W 071°02'0 0.0
2018-May-23 18:31N 42°22' W 071°02'0 0.0
2018-May-23 18:00N 42°22' W 071°02'0 0.0
2018-May-23 17:30N 42°22' W 071°02'0 0.0
2018-May-23 17:00N 42°22' W 071°02'0 0.0
2018-May-23 16:30N 42°22' W 071°02'0 0.0
2018-May-23 16:00N 42°22' W 071°02'0 0.0
2018-May-23 15:30N 42°22' W 071°02'0 0.0
2018-May-23 15:00N 42°22' W 071°02'0 0.0
2018-May-23 14:30N 42°22' W 071°02'0 0.0
2018-May-23 14:01N 42°22' W 071°02'0 0.0
2018-May-23 13:30N 42°22' W 071°02'0 0.0
2018-May-23 13:01N 42°22' W 071°02'0 0.0
2018-May-23 12:30N 42°22' W 071°02'0 0.0
2018-May-23 12:00N 42°22' W 071°02'1 2.3
2018-May-23 11:30N 42°23' W 071°03'1421.1
2018-May-23 11:30N 42°22' W 071°02'0 0.0
2018-May-23 11:00N 42°22' W 071°02'0 1.0
2018-May-23 10:30N 42°21' W 071°02'01753.2
2018-May-23 10:30N 42°22' W 071°02'0 0.0
2018-May-23 10:00N 42°22' W 071°02'613.0
2018-May-23 09:31N 42°23' W 070°53'67736.7
2018-May-23 09:30N 42°22' W 071°02'1019.5
2018-May-23 09:00N 42°24' W 070°49'1019.6
2018-May-23 08:30N 42°22' W 071°02'612.8
2018-May-23 08:00N 42°24' W 070°54'623106.8
2018-May-23 08:00N 42°22' W 071°02'612.8
2018-May-23 07:30N 42°23' W 070°54'6853.5
2018-May-23 07:30N 42°22' W 071°02'612.8
2018-May-23 07:00N 42°23' W 070°54'6757.7
2018-May-23 07:00N 42°22' W 071°02'612.3
2018-May-23 06:30N 42°23' W 070°54'6136.5
2018-May-23 06:27N 42°22' W 071°02'818.9
2018-May-23 06:00N 42°24' W 070°51'81595.8
2018-May-23 06:00N 42°22' W 071°02'0 0.0
2018-May-23 05:30N 42°22' W 071°02'0 0.0
2018-May-23 05:00N 42°22' W 071°02'0 0.0
2018-May-23 04:30N 42°22' W 071°02'0 0.0
2018-May-23 04:00N 42°22' W 071°02'064.8
2018-May-23 04:00N 42°22' W 071°02'0 0.0
2018-May-23 03:30N 42°22' W 071°02'0 0.0
2018-May-23 03:00N 42°22' W 071°02'0 0.0
2018-May-23 02:30N 42°22' W 071°02'0 0.0
2018-May-23 02:00N 42°22' W 071°02'0 0.0
2018-May-23 01:30N 42°22' W 071°02'0 0.0
2018-May-23 01:01N 42°22' W 071°02'0 0.0
2018-May-23 00:30N 42°22' W 071°02'064.8
2018-May-23 00:30N 42°22' W 071°02'0 0.0
2018-May-23 00:00N 42°22' W 071°02'0 0.0
2018-May-22 23:30N 42°22' W 071°02'0 0.0
2018-May-22 23:00N 42°22' W 071°02'0 3.8
2018-May-22 23:00N 42°22' W 071°02'0 0.0
2018-May-22 22:30N 42°22' W 071°02'0 0.0
2018-May-22 22:00N 42°22' W 071°02'1 1.7
2018-May-22 21:30N 42°22' W 071°03'13042.1
2018-May-22 21:30N 42°22' W 071°02'4 8.7
2018-May-22 21:00N 42°21' W 070°56'4599.9
2018-May-22 21:00N 42°22' W 071°02'0 0.0
2018-May-22 20:30N 42°22' W 071°02'4 8.8
2018-May-22 20:00N 42°21' W 070°56'415953.1
2018-May-22 20:00N 42°22' W 071°02'0 0.0
2018-May-22 19:30N 42°22' W 071°02'14845.8
2018-May-22 19:30N 42°21' W 071°01'1 2.7
2018-May-22 19:00N 42°22' W 071°02'0 0.0
2018-May-22 18:30N 42°22' W 071°02'0 0.0
2018-May-22 18:00N 42°22' W 071°02'064.8
2018-May-22 18:00N 42°22' W 071°02'0 0.0
2018-May-22 17:30N 42°22' W 071°02'0 7.4
2018-May-22 17:30N 42°22' W 071°02'0 0.0
2018-May-22 17:00N 42°22' W 071°02'0 3.8
2018-May-22 17:00N 42°22' W 071°02'0 0.0
2018-May-22 16:30N 42°22' W 071°02'013.0
2018-May-22 16:30N 42°22' W 071°02'0 0.0
2018-May-22 16:00N 42°22' W 071°02'0 3.8
2018-May-22 16:00N 42°22' W 071°02'0 0.0
2018-May-22 15:30N 42°22' W 071°02'0 4.4
2018-May-22 15:30N 42°22' W 071°02'0 0.0
2018-May-22 15:00N 42°22' W 071°02'013.0
2018-May-22 15:00N 42°22' W 071°02'0 0.0
2018-May-22 14:30N 42°22' W 071°02'0 4.1
2018-May-22 14:30N 42°22' W 071°02'0 0.0
2018-May-22 14:01N 42°22' W 071°02'021.6
2018-May-22 14:00N 42°22' W 071°02'0 0.0
2018-May-22 13:30N 42°22' W 071°02'0 0.0
2018-May-22 13:00N 42°22' W 071°02'0 0.0
2018-May-22 12:30N 42°22' W 071°02'064.8
2018-May-22 12:30N 42°22' W 071°02'0 0.0
2018-May-22 12:00N 42°22' W 071°02'0 4.3
2018-May-22 12:00N 42°22' W 071°02'0 0.0
2018-May-22 11:30N 42°22' W 071°02'0 0.0
2018-May-22 11:00N 42°22' W 071°02'0 5.9
2018-May-22 11:00N 42°22' W 071°02'0 0.0
2018-May-22 10:30N 42°22' W 071°02'010.8
2018-May-22 10:30N 42°22' W 071°02'0 0.0
2018-May-22 10:00N 42°22' W 071°02'0 4.6
2018-May-22 10:00N 42°22' W 071°02'0 0.0
2018-May-22 09:30N 42°22' W 071°02'0 4.1
2018-May-22 09:30N 42°22' W 071°02'0 0.0
2018-May-22 09:01N 42°22' W 071°02'010.8
2018-May-22 09:00N 42°22' W 071°02'0 0.0
2018-May-22 08:30N 42°22' W 071°02'918.3
2018-May-22 08:01N 42°24' W 070°50'92744.8
2018-May-22 08:00N 42°22' W 071°02'4 8.6
2018-May-22 07:30N 42°21' W 070°56'47694.5
2018-May-22 07:30N 42°22' W 071°02'0 0.0
2018-May-22 07:00N 42°22' W 071°02'188.8
2018-May-22 07:00N 42°23' W 071°03'1 2.2
2018-May-22 06:31N 42°22' W 071°02'0377.2
2018-May-22 06:30N 42°22' W 071°02'0 0.4
2018-May-22 06:00N 42°22' W 071°02'021.6
2018-May-22 06:00N 42°22' W 071°02'0 0.0
2018-May-22 05:31N 42°22' W 071°02'0 3.4
2018-May-22 05:30N 42°22' W 071°02'0 0.0
2018-May-22 05:00N 42°22' W 071°02'0 0.0
2018-May-22 04:30N 42°22' W 071°02'0 0.0
2018-May-22 04:00N 42°22' W 071°02'0 8.1
2018-May-22 04:00N 42°22' W 071°02'0 0.0
2018-May-22 03:30N 42°22' W 071°02'064.8
2018-May-22 03:30N 42°22' W 071°02'0 0.0
2018-May-22 03:00N 42°22' W 071°02'0 6.5
2018-May-22 03:00N 42°22' W 071°02'0 0.0
2018-May-22 02:30N 42°22' W 071°02'0 0.0
2018-May-22 02:00N 42°22' W 071°02'0 0.0
2018-May-22 01:30N 42°22' W 071°02'064.8
2018-May-22 01:30N 42°22' W 071°02'0 0.0
2018-May-22 01:00N 42°22' W 071°02'064.8
2018-May-22 01:00N 42°22' W 071°02'0 0.0
2018-May-22 00:30N 42°22' W 071°02'0 0.0
2018-May-22 00:00N 42°22' W 071°02'0 0.0
2018-May-21 23:30N 42°22' W 071°02'013.0
2018-May-21 23:30N 42°22' W 071°02'0 0.0
2018-May-21 23:00N 42°22' W 071°02'064.8
2018-May-21 23:00N 42°22' W 071°02'0 0.0
2018-May-21 22:31N 42°22' W 071°02'0 3.7
2018-May-21 22:30N 42°22' W 071°02'0 0.0
2018-May-21 22:00N 42°22' W 071°02'0 0.0
2018-May-21 21:30N 42°22' W 071°02'010.8
2018-May-21 21:30N 42°22' W 071°02'0 0.0
2018-May-21 21:01N 42°22' W 071°02'0 4.1
2018-May-21 21:00N 42°22' W 071°02'0 0.0
2018-May-21 20:31N 42°22' W 071°02'0 7.2
2018-May-21 20:30N 42°22' W 071°02'4 7.7
2018-May-21 20:01N 42°20' W 070°57'41059.8
2018-May-21 20:00N 42°22' W 071°02'816.6
2018-May-21 19:30N 42°23' W 070°51'84947.6
2018-May-21 19:30N 42°22' W 071°02'0 0.0
2018-May-21 19:00N 42°22' W 071°02'7162.1
2018-May-21 18:58N 42°21' W 070°52'715.8
2018-May-21 18:30N 42°22' W 071°02'2519.1
2018-May-21 18:30N 42°20' W 070°59'2 4.7
2018-May-21 18:01N 42°22' W 071°02'0 0.0
2018-May-21 17:30N 42°22' W 071°02'0 0.0
2018-May-21 17:00N 42°22' W 071°02'043.2
2018-May-21 17:00N 42°22' W 071°02'0 0.0
2018-May-21 16:30N 42°22' W 071°02'0 0.0
2018-May-21 16:01N 42°22' W 071°02'066.7
2018-May-21 16:01N 42°22' W 071°02'0 0.0
2018-May-21 15:30N 42°22' W 071°02'0 0.0
2018-May-21 15:00N 42°22' W 071°02'0 0.0
2018-May-21 14:31N 42°22' W 071°02'0 4.6
2018-May-21 14:30N 42°22' W 071°02'0 0.0
2018-May-21 14:00N 42°22' W 071°02'0 0.0
2018-May-21 13:31N 42°22' W 071°02'0 0.0
2018-May-21 13:01N 42°22' W 071°02'11613.4
2018-May-21 13:00N 42°23' W 071°03'3 5.9
2018-May-21 12:30N 42°21' W 071°00'2 3.2
2018-May-21 12:00N 42°22' W 071°02'0 0.0
2018-May-21 11:30N 42°22' W 071°02'73034.0
2018-May-21 11:30N 42°23' W 070°53'3 6.4
2018-May-21 11:00N 42°24' W 070°49'1017718.7
2018-May-21 11:00N 42°22' W 071°02'0 0.0
2018-May-21 10:30N 42°22' W 071°02'0 0.3
2018-May-21 10:00N 42°22' W 071°02'0522.3
2018-May-21 10:00N 42°22' W 071°02'0 0.0
2018-May-21 09:30N 42°22' W 071°02'0 0.0
2018-May-21 09:00N 42°22' W 071°02'0 0.0
2018-May-21 08:31N 42°22' W 071°02'0 3.1
2018-May-21 08:30N 42°22' W 071°02'0 0.0
2018-May-21 08:00N 42°22' W 071°02'0 0.0
2018-May-21 07:30N 42°22' W 071°02'0 0.0
2018-May-21 07:00N 42°22' W 071°02'0 4.2
2018-May-21 07:00N 42°22' W 071°02'0 0.0
2018-May-21 06:30N 42°22' W 071°02'064.8
2018-May-21 06:30N 42°22' W 071°02'0 0.0
2018-May-21 06:00N 42°22' W 071°02'0 0.0
2018-May-21 05:30N 42°22' W 071°02'0 7.2
2018-May-21 05:30N 42°22' W 071°02'0 0.0
2018-May-21 05:00N 42°22' W 071°02'0 5.4
2018-May-21 05:00N 42°22' W 071°02'0 0.0
2018-May-21 04:30N 42°22' W 071°02'064.8
2018-May-21 04:30N 42°22' W 071°02'0 0.0
2018-May-21 04:00N 42°22' W 071°02'032.4
2018-May-21 04:00N 42°22' W 071°02'0 0.0
2018-May-21 03:30N 42°22' W 071°02'0 0.0
2018-May-21 03:01N 42°22' W 071°02'064.8
2018-May-21 03:01N 42°22' W 071°02'0 0.0
2018-May-21 02:30N 42°22' W 071°02'0 3.8
2018-May-21 02:30N 42°22' W 071°02'0 0.0
2018-May-21 02:00N 42°22' W 071°02'0 0.0
2018-May-21 01:30N 42°22' W 071°02'0 0.0
2018-May-21 01:00N 42°22' W 071°02'0 0.0
2018-May-21 00:31N 42°22' W 071°02'064.8
2018-May-21 00:31N 42°22' W 071°02'0 0.0
2018-May-21 00:00N 42°22' W 071°02'0 0.0
2018-May-20 23:30N 42°22' W 071°02'064.8
2018-May-20 23:30N 42°22' W 071°02'0 0.0
2018-May-20 23:00N 42°22' W 071°02'0 0.0
2018-May-20 22:30N 42°22' W 071°02'0 1.0
2018-May-20 22:30N 42°22' W 071°02'0 0.0
2018-May-20 22:00N 42°22' W 071°02'0 0.0
2018-May-20 21:30N 42°22' W 071°02'0 0.0
2018-May-20 21:01N 42°22' W 071°02'0 0.0
2018-May-20 20:31N 42°22' W 071°02'064.8
2018-May-20 20:31N 42°22' W 071°02'0 0.0
2018-May-20 20:00N 42°22' W 071°02'0 0.0
2018-May-20 19:30N 42°22' W 071°02'0 0.0
2018-May-20 19:00N 42°22' W 071°02'0 0.0
2018-May-20 18:30N 42°22' W 071°02'0 0.0
2018-May-20 18:00N 42°22' W 071°02'0 0.0
2018-May-20 17:30N 42°22' W 071°02'064.8
2018-May-20 17:30N 42°22' W 071°02'0 0.0
2018-May-20 17:00N 42°22' W 071°02'0 0.0
2018-May-20 16:30N 42°22' W 071°02'0 0.0
2018-May-20 16:01N 42°22' W 071°02'064.8
2018-May-20 16:00N 42°22' W 071°02'0 0.0
2018-May-20 15:30N 42°22' W 071°02'0 0.0
2018-May-20 15:00N 42°22' W 071°02'043.2
2018-May-20 15:00N 42°22' W 071°02'0 0.0
2018-May-20 14:30N 42°22' W 071°02'064.8
2018-May-20 14:30N 42°22' W 071°02'0 0.0
2018-May-20 14:00N 42°22' W 071°02'0 0.0
2018-May-20 13:30N 42°22' W 071°02'0 0.0
2018-May-20 13:00N 42°22' W 071°02'0 0.0
2018-May-20 12:30N 42°22' W 071°02'043.2
2018-May-20 12:30N 42°22' W 071°02'0 0.0
2018-May-20 12:00N 42°22' W 071°02'0 0.0
2018-May-20 11:30N 42°22' W 071°02'4 7.8
2018-May-20 11:00N 42°20' W 070°57'2 4.6
2018-May-20 10:30N 42°22' W 070°55'4 8.7
2018-May-20 10:00N 42°24' W 070°50'93624.9
2018-May-20 10:00N 42°22' W 071°02'0 0.0
2018-May-20 09:30N 42°22' W 071°02'544.2
2018-May-20 09:24N 42°21' W 070°56'511.5
2018-May-20 09:00N 42°22' W 071°02'026.9
2018-May-20 09:00N 42°22' W 071°02'0 0.0
2018-May-20 08:30N 42°22' W 071°02'3 5.2
2018-May-20 08:00N 42°20' W 070°59'3278.4
2018-May-20 07:59N 42°22' W 071°02'0 0.0
2018-May-20 07:30N 42°22' W 071°02'0 0.0
2018-May-20 07:01N 42°22' W 071°02'016.0
2018-May-20 07:01N 42°22' W 071°02'0 0.0
2018-May-20 06:30N 42°22' W 071°02'0 0.0
2018-May-20 06:00N 42°22' W 071°02'0 0.0
2018-May-20 05:30N 42°22' W 071°02'026.9
2018-May-20 05:30N 42°22' W 071°02'0 0.0
2018-May-20 05:00N 42°22' W 071°02'3 5.2
2018-May-20 04:30N 42°20' W 070°59'34586.2
2018-May-20 04:30N 42°22' W 071°02'0 0.0
2018-May-20 04:00N 42°22' W 071°02'0 0.0
2018-May-20 03:30N 42°22' W 071°02'0 0.0
2018-May-20 03:00N 42°22' W 071°02'026.9
2018-May-20 03:00N 42°22' W 071°02'0 0.0
2018-May-20 02:30N 42°22' W 071°02'0 0.0
2018-May-20 02:01N 42°22' W 071°02'0 0.1
2018-May-20 01:30N 42°22' W 071°02'0158.6
2018-May-20 01:30N 42°22' W 071°02'0 0.0
2018-May-20 01:00N 42°22' W 071°02'4 7.1
2018-May-20 00:30N 42°20' W 070°58'412682.0
2018-May-20 00:30N 42°22' W 071°02'0 0.0
2018-May-20 00:00N 42°22' W 071°02'0 0.0
2018-May-19 23:30N 42°22' W 071°02'0 0.0
2018-May-19 23:00N 42°22' W 071°02'0 0.0
2018-May-19 22:30N 42°22' W 071°02'0 0.0
2018-May-19 22:00N 42°22' W 071°02'0 0.0
2018-May-19 21:30N 42°22' W 071°02'0 0.0
2018-May-19 21:00N 42°22' W 071°02'4 8.5
2018-May-19 20:30N 42°21' W 070°56'4 8.4
2018-May-19 20:00N 42°22' W 071°02'0 0.0
2018-May-19 19:30N 42°22' W 071°02'0 0.0
2018-May-19 19:00N 42°22' W 071°02'0 5.9
2018-May-19 19:00N 42°22' W 071°02'0 0.0
2018-May-19 18:30N 42°22' W 071°02'032.4
2018-May-19 18:30N 42°22' W 071°02'0 0.0
2018-May-19 18:00N 42°22' W 071°02'0 0.0
2018-May-19 17:31N 42°22' W 071°02'0 0.0
2018-May-19 17:00N 42°22' W 071°02'0 0.0
2018-May-19 16:30N 42°22' W 071°02'0 0.0
2018-May-19 16:00N 42°22' W 071°02'0 0.0
2018-May-19 15:30N 42°22' W 071°02'0 0.0
2018-May-19 15:00N 42°22' W 071°02'0 0.0
2018-May-19 14:30N 42°22' W 071°02'0 0.0
2018-May-19 14:00N 42°22' W 071°02'0 0.0
2018-May-19 13:30N 42°22' W 071°02'0 2.9
2018-May-19 13:30N 42°22' W 071°02'0 0.0
2018-May-19 13:00N 42°22' W 071°02'064.8
2018-May-19 13:00N 42°22' W 071°02'0 0.0
2018-May-19 12:30N 42°22' W 071°02'0 0.0
2018-May-19 12:00N 42°22' W 071°02'0 0.0
2018-May-19 11:30N 42°22' W 071°02'043.2
2018-May-19 11:30N 42°22' W 071°02'0 0.0
2018-May-19 11:00N 42°22' W 071°02'918.7
2018-May-19 10:31N 42°24' W 070°50'93709.5
2018-May-19 10:30N 42°22' W 071°02'0 0.0
2018-May-19 10:01N 42°22' W 071°02'103349.0
2018-May-19 10:00N 42°23' W 070°48'2 3.3
2018-May-19 09:30N 42°24' W 070°49'103455.7
2018-May-19 09:30N 42°22' W 071°02'4 8.4
2018-May-19 09:00N 42°21' W 070°56'4 8.4
2018-May-19 08:30N 42°22' W 071°02'12448.3
2018-May-19 08:30N 42°21' W 071°02'1 1.4
2018-May-19 08:00N 42°22' W 071°02'0 0.0
2018-May-19 07:30N 42°22' W 071°02'0 0.0
2018-May-19 07:00N 42°22' W 071°02'021.6
2018-May-19 07:00N 42°22' W 071°02'0 0.0
2018-May-19 06:30N 42°22' W 071°02'0 0.0
2018-May-19 06:00N 42°22' W 071°02'064.8
2018-May-19 06:00N 42°22' W 071°02'0 0.0
2018-May-19 05:30N 42°22' W 071°02'064.8
2018-May-19 05:30N 42°22' W 071°02'0 0.0
2018-May-19 05:01N 42°22' W 071°02'0 0.0
2018-May-19 04:30N 42°22' W 071°02'0 1.6
2018-May-19 04:30N 42°22' W 071°02'0 0.0
2018-May-19 04:00N 42°22' W 071°02'0 0.0
2018-May-19 03:30N 42°22' W 071°02'0 0.0
2018-May-19 03:00N 42°22' W 071°02'0 0.0
2018-May-19 02:30N 42°22' W 071°02'71859.8
2018-May-19 02:30N 42°23' W 070°52'714.7
2018-May-19 02:01N 42°22' W 071°02'461.0
2018-May-19 01:56N 42°21' W 070°56'410.1
2018-May-19 01:30N 42°22' W 071°02'031.9
2018-May-19 01:30N 42°22' W 071°02'0 0.0
2018-May-19 01:00N 42°22' W 071°02'0 0.4
2018-May-19 00:59N 42°22' W 071°02'0 0.0
2018-May-19 00:30N 42°22' W 071°02'026.9
2018-May-19 00:30N 42°22' W 071°02'0 0.0
2018-May-19 00:00N 42°22' W 071°02'0 0.0
2018-May-18 23:30N 42°22' W 071°02'3621.0
2018-May-18 23:30N 42°20' W 070°59'2 4.5
2018-May-18 23:00N 42°21' W 071°01'3 5.2
2018-May-18 22:30N 42°23' W 071°04'2813.4
2018-May-18 22:30N 42°22' W 071°02'0 0.2
2018-May-18 22:00N 42°22' W 071°02'2 4.9
2018-May-18 21:31N 42°20' W 070°59'39039.8
2018-May-18 21:31N 42°22' W 071°02'0 0.0
2018-May-18 21:01N 42°22' W 071°02'71858.2
2018-May-18 21:00N 42°23' W 070°52'714.5
2018-May-18 20:30N 42°22' W 071°02'0 0.0
2018-May-18 20:01N 42°22' W 071°02'1386.0
2018-May-18 20:00N 42°21' W 071°02'1 2.4
2018-May-18 19:31N 42°22' W 071°02'0 0.0
2018-May-18 19:00N 42°22' W 071°02'4 7.3
2018-May-18 18:30N 42°20' W 070°57'415891.6
2018-May-18 18:30N 42°22' W 071°03'1 1.1
2018-May-18 18:00N 42°23' W 071°03'2 4.3
2018-May-18 17:31N 42°21' W 071°02'14372.4
2018-May-18 17:31N 42°22' W 071°02'1 1.7
2018-May-18 17:00N 42°21' W 071°02'1 1.7
2018-May-18 16:30N 42°22' W 071°02'064.8
2018-May-18 16:30N 42°22' W 071°02'0 0.0
2018-May-18 16:00N 42°22' W 071°02'0 0.0
2018-May-18 15:30N 42°22' W 071°02'0 0.0
2018-May-18 15:00N 42°22' W 071°02'043.2
2018-May-18 15:00N 42°22' W 071°02'0 0.0
2018-May-18 14:30N 42°22' W 071°02'0 0.0
2018-May-18 14:00N 42°22' W 071°02'0 0.0
2018-May-18 13:30N 42°22' W 071°02'043.2
2018-May-18 13:30N 42°22' W 071°02'0 0.0
2018-May-18 13:00N 42°22' W 071°02'1 2.7
2018-May-18 12:30N 42°23' W 071°03'14849.9
2018-May-18 12:30N 42°22' W 071°02'0 0.0
2018-May-18 12:01N 42°22' W 071°02'0 0.9
2018-May-18 12:00N 42°22' W 071°02'0 0.0
2018-May-18 11:31N 42°22' W 071°02'1 1.0
2018-May-18 11:01N 42°21' W 071°02'4 7.0
2018-May-18 10:30N 42°20' W 070°57'413734.4
2018-May-18 10:30N 42°22' W 071°02'0 0.0
2018-May-18 10:01N 42°22' W 071°02'9670.1
2018-May-18 10:00N 42°24' W 070°49'919.4
2018-May-18 09:30N 42°22' W 071°02'  
Track history (hours):
 
Tides and Currents Weather Stations Pressure Air Temp Water Temp Dewpoint Dewpoint Depression Visibility Wind Speed Wind Dir Waves Ship Positions

Boston Pilot Mystic

Last reported at 2018-May-28 09:30 UTC. Time now 2018-May-28 09:34 UTC.
Position N 42°22' W 071°02'.

Length 16 m; draft 1.5 m.

Type: Pilot. MMSI: 367029020.

Date/timePositionNaut miles runAvg speedWind from/ knotsBaromVisibWave heightAir tempDewpointWater temp
2018-May-28 09:30N 42°22' W 071°02'0 0.0
2018-May-28 09:00N 42°22' W 071°02'0 0.0
2018-May-28 08:30N 42°22' W 071°02'34108.7
2018-May-28 08:30N 42°20' W 070°58'4 7.6
2018-May-28 08:00N 42°22' W 071°03'0111.8
2018-May-28 08:00N 42°22' W 071°02'1 2.6
2018-May-28 07:30N 42°23' W 071°03'1468.1
2018-May-28 07:30N 42°22' W 071°02'0 0.0
2018-May-28 07:00N 42°22' W 071°02'1671.4
2018-May-28 07:00N 42°23' W 071°03'1 2.7
2018-May-28 06:30N 42°22' W 071°02'071.7
2018-May-28 06:30N 42°22' W 071°02'0 0.0
2018-May-28 06:00N 42°22' W 071°02'0 0.0
2018-May-28 05:30N 42°22' W 071°02'0 0.0
2018-May-28 05:00N 42°22' W 071°02'064.8
2018-May-28 05:00N 42°22' W 071°02'0 0.0
2018-May-28 04:30N 42°22' W 071°02'0 0.0
2018-May-28 04:01N 42°22' W 071°02'0 9.3
2018-May-28 04:00N 42°22' W 071°02'0 0.0
2018-May-28 03:30N 42°22' W 071°02'064.8
2018-May-28 03:30N 42°22' W 071°02'0 0.0
2018-May-28 03:00N 42°22' W 071°02'0 0.0
2018-May-28 02:31N 42°22' W 071°02'0 3.8
2018-May-28 02:30N 42°22' W 071°02'0 0.0
2018-May-28 02:00N 42°22' W 071°02'0 8.6
2018-May-28 02:00N 42°22' W 071°02'0 0.0
2018-May-28 01:30N 42°22' W 071°02'0 0.0
2018-May-28 01:01N 42°22' W 071°02'0 3.4
2018-May-28 01:00N 42°22' W 071°02'0 0.0
2018-May-28 00:31N 42°22' W 071°02'5935.8
2018-May-28 00:30N 42°22' W 070°56'0 0.6
2018-May-28 00:00N 42°22' W 070°55'517159.0
2018-May-28 00:00N 42°22' W 071°02'0 0.0
2018-May-27 23:31N 42°22' W 071°02'2511.0
2018-May-27 23:30N 42°20' W 071°00'2 4.0
2018-May-27 23:00N 42°22' W 071°02'1 2.3
2018-May-27 22:30N 42°21' W 071°02'14223.4
2018-May-27 22:30N 42°22' W 071°02'0 0.0
2018-May-27 22:00N 42°22' W 071°02'0 1.1
2018-May-27 22:00N 42°22' W 071°02'1 1.9
2018-May-27 21:31N 42°22' W 071°03'1274.1
2018-May-27 21:30N 42°22' W 071°02'0 0.0
2018-May-27 21:00N 42°22' W 071°02'0 0.0
2018-May-27 20:30N 42°22' W 071°02'0 0.0
2018-May-27 20:00N 42°22' W 071°02'0 0.0
2018-May-27 19:30N 42°22' W 071°02'064.8
2018-May-27 19:30N 42°22' W 071°02'3 7.0
2018-May-27 19:00N 42°20' W 070°58'312570.4
2018-May-27 19:00N 42°22' W 071°02'0 0.0
2018-May-27 18:30N 42°22' W 071°02'725958.5
2018-May-27 18:30N 42°23' W 070°52'612.1
2018-May-27 18:00N 42°20' W 070°59'3 5.2
2018-May-27 17:30N 42°22' W 071°02'0 0.0
2018-May-27 17:00N 42°22' W 071°02'0 0.0
2018-May-27 16:30N 42°22' W 071°02'0 0.0
2018-May-27 16:00N 42°22' W 071°02'043.2
2018-May-27 16:00N 42°22' W 071°02'0 0.0
2018-May-27 15:30N 42°22' W 071°02'0 0.0
2018-May-27 15:00N 42°22' W 071°02'066.7
2018-May-27 15:00N 42°22' W 071°02'0 0.0
2018-May-27 14:30N 42°22' W 071°02'0 0.0
2018-May-27 14:00N 42°22' W 071°02'0 1.0
2018-May-27 14:00N 42°22' W 071°02'0 0.0
2018-May-27 13:30N 42°22' W 071°02'064.8
2018-May-27 13:30N 42°22' W 071°02'0 0.0
2018-May-27 13:00N 42°22' W 071°02'064.8
2018-May-27 13:00N 42°22' W 071°02'0 0.0
2018-May-27 12:30N 42°22' W 071°02'0 0.0
2018-May-27 12:00N 42°22' W 071°02'0 0.0
2018-May-27 11:31N 42°22' W 071°02'3539.1
2018-May-27 11:30N 42°20' W 070°58'3 6.3
2018-May-27 11:00N 42°22' W 071°02'816.0
2018-May-27 10:30N 42°24' W 070°52'87185.6
2018-May-27 10:30N 42°22' W 071°02'5 9.4
2018-May-27 10:01N 42°22' W 070°56'52419.2
2018-May-27 10:00N 42°22' W 071°02'0 0.0
2018-May-27 09:30N 42°22' W 071°02'1145.8
2018-May-27 09:30N 42°21' W 071°02'1 2.4
2018-May-27 09:00N 42°22' W 071°02'4 8.4
2018-May-27 08:30N 42°21' W 070°56'510.3
2018-May-27 08:01N 42°24' W 070°51'94395.8
2018-May-27 08:00N 42°22' W 071°02'611.5
2018-May-27 07:30N 42°22' W 070°54'620702.2
2018-May-27 07:30N 42°22' W 071°02'1 2.7
2018-May-27 07:00N 42°21' W 071°01'14813.7
2018-May-27 07:00N 42°22' W 071°02'0 0.0
2018-May-27 06:30N 42°22' W 071°02'0 0.0
2018-May-27 06:01N 42°22' W 071°02'0 5.4
2018-May-27 06:00N 42°22' W 071°02'0 0.0
2018-May-27 05:31N 42°22' W 071°02'0 3.4
2018-May-27 05:30N 42°22' W 071°02'0 0.0
2018-May-27 05:00N 42°22' W 071°02'0 0.0
2018-May-27 04:31N 42°22' W 071°02'0 7.2
2018-May-27 04:30N 42°22' W 071°02'0 0.0
2018-May-27 04:00N 42°22' W 071°02'0 0.0
2018-May-27 03:30N 42°22' W 071°02'0 0.0
2018-May-27 03:00N 42°22' W 071°02'0 0.0
2018-May-27 02:30N 42°22' W 071°02'0 0.0
2018-May-27 02:00N 42°22' W 071°02'032.4
2018-May-27 02:00N 42°22' W 071°02'0 0.0
2018-May-27 01:30N 42°22' W 071°02'28423.5
2018-May-27 01:30N 42°20' W 070°59'2 4.7
2018-May-27 01:01N 42°22' W 071°02'7885.0
2018-May-27 01:00N 42°23' W 070°52'715.0
2018-May-27 00:31N 42°22' W 071°02'3618.2
2018-May-27 00:30N 42°20' W 070°58'3 6.5
2018-May-27 00:00N 42°22' W 071°02'1137.0
2018-May-27 00:00N 42°21' W 071°02'1 2.2
2018-May-26 23:30N 42°22' W 071°02'037.0
2018-May-26 23:30N 42°22' W 071°02'0 0.0
2018-May-26 23:00N 42°22' W 071°02'026.9
2018-May-26 23:00N 42°22' W 071°02'0 0.0
2018-May-26 22:30N 42°22' W 071°02'021.6
2018-May-26 22:30N 42°22' W 071°02'0 0.0
2018-May-26 22:00N 42°22' W 071°02'2 4.0
2018-May-26 21:30N 42°20' W 070°60'2795.0
2018-May-26 21:30N 42°22' W 071°02'0 0.0
2018-May-26 21:00N 42°22' W 071°02'0 0.0
2018-May-26 20:30N 42°22' W 071°02'0 0.0
2018-May-26 20:00N 42°22' W 071°02'14364.3
2018-May-26 20:00N 42°21' W 071°02'1 2.5
2018-May-26 19:30N 42°22' W 071°02'0 0.0
2018-May-26 19:00N 42°22' W 071°02'0 0.0
2018-May-26 18:30N 42°22' W 071°02'064.8
2018-May-26 18:30N 42°22' W 071°02'0 0.0
2018-May-26 18:00N 42°22' W 071°02'0 0.0
2018-May-26 17:30N 42°22' W 071°02'0 0.0
2018-May-26 17:00N 42°22' W 071°02'0 0.0
2018-May-26 16:31N 42°22' W 071°02'0 0.0
2018-May-26 16:00N 42°22' W 071°02'0 0.0
2018-May-26 15:30N 42°22' W 071°02'0 0.0
2018-May-26 15:00N 42°22' W 071°02'064.8
2018-May-26 15:00N 42°22' W 071°02'0 0.0
2018-May-26 14:30N 42°22' W 071°02'0 2.0
2018-May-26 14:30N 42°22' W 071°02'0 0.0
2018-May-26 14:00N 42°22' W 071°02'0 0.0
2018-May-26 13:30N 42°22' W 071°02'064.8
2018-May-26 13:30N 42°22' W 071°02'0 0.0
2018-May-26 13:00N 42°22' W 071°02'0 0.0
2018-May-26 12:30N 42°22' W 071°02'0 0.0
2018-May-26 12:00N 42°22' W 071°02'0 0.0
2018-May-26 11:30N 42°22' W 071°02'510.3
2018-May-26 11:00N 42°22' W 070°55'2 4.8
2018-May-26 10:31N 42°23' W 070°52'71395.8
2018-May-26 10:30N 42°22' W 071°02'0 0.0
2018-May-26 10:00N 42°22' W 071°02'0 0.0
2018-May-26 09:30N 42°22' W 071°02'0 0.0
2018-May-26 09:00N 42°22' W 071°02'015.1
2018-May-26 09:00N 42°22' W 071°02'0 0.1
2018-May-26 08:30N 42°22' W 071°02'65446.5
2018-May-26 08:30N 42°22' W 070°54'2 4.4
2018-May-26 08:00N 42°23' W 070°51'82396.2
2018-May-26 08:00N 42°22' W 071°02'2 3.6
2018-May-26 07:30N 42°21' W 071°00'2 3.6
2018-May-26 07:00N 42°22' W 071°02'11919.1
2018-May-26 07:00N 42°21' W 071°02'1 1.1
2018-May-26 06:30N 42°22' W 071°02'0 0.0
2018-May-26 05:30N 42°22' W 071°02'0 0.0
2018-May-26 05:00N 42°22' W 071°02'064.8
2018-May-26 05:00N 42°22' W 071°02'0 0.0
2018-May-26 04:30N 42°22' W 071°02'0 0.0
2018-May-26 04:00N 42°22' W 071°02'0 0.0
2018-May-26 03:30N 42°22' W 071°02'0 0.0
2018-May-26 03:00N 42°22' W 071°02'043.2
2018-May-26 03:00N 42°22' W 071°02'0 0.0
2018-May-26 02:30N 42°22' W 071°02'0 4.1
2018-May-26 02:30N 42°22' W 071°02'0 0.0
2018-May-26 02:00N 42°22' W 071°02'0 0.0
2018-May-26 01:31N 42°22' W 071°02'064.8
2018-May-26 01:31N 42°22' W 071°02'1 2.3
2018-May-26 01:00N 42°21' W 071°02'1 2.3
2018-May-26 00:30N 42°22' W 071°02'0 0.0
2018-May-26 00:00N 42°22' W 071°02'0 0.0
2018-May-25 23:30N 42°22' W 071°02'72115.8
2018-May-25 23:30N 42°23' W 070°53'714.2
2018-May-25 23:00N 42°22' W 071°02'81696.4
2018-May-25 23:00N 42°23' W 070°52'713.4
2018-May-25 22:30N 42°21' W 071°00'26047.4
2018-May-25 22:30N 42°22' W 071°02'0 0.0
2018-May-25 22:00N 42°22' W 071°02'0 0.0
2018-May-25 21:30N 42°22' W 071°02'026.9
2018-May-25 21:30N 42°22' W 071°02'0 0.0
2018-May-25 21:00N 42°22' W 071°02'0 0.0
2018-May-25 20:30N 42°22' W 071°02'0 0.0
2018-May-25 20:00N 42°22' W 071°02'01190.7
2018-May-25 20:00N 42°21' W 071°02'0 0.7
2018-May-25 19:30N 42°22' W 071°02'0 0.0
2018-May-25 19:00N 42°22' W 071°02'0 0.0
2018-May-25 18:30N 42°22' W 071°02'82147.8
2018-May-25 18:30N 42°25' W 070°51'3 5.6
2018-May-25 18:00N 42°22' W 070°52'75276.8
2018-May-25 18:00N 42°22' W 071°02'0 0.0
2018-May-25 17:30N 42°22' W 071°02'0 0.0
2018-May-25 17:00N 42°22' W 071°02'6136.8
2018-May-25 16:58N 42°25' W 070°55'613.5
2018-May-25 16:30N 42°22' W 071°02'61694.4
2018-May-25 16:30N 42°25' W 070°55'612.4
2018-May-25 16:01N 42°22' W 071°02'2 3.2
2018-May-25 15:30N 42°21' W 071°00'2 4.1
2018-May-25 15:00N 42°22' W 071°03'0 1.0
2018-May-25 14:30N 42°22' W 071°02'2691.6
2018-May-25 14:30N 42°23' W 071°03'2 3.1
2018-May-25 14:00N 42°22' W 071°02'0 0.0
2018-May-25 13:30N 42°22' W 071°02'0 0.0
2018-May-25 13:00N 42°22' W 071°02'0 0.0
2018-May-25 12:30N 42°22' W 071°02'026.9
2018-May-25 12:30N 42°22' W 071°02'0 0.0
2018-May-25 12:00N 42°22' W 071°02'1 2.7
2018-May-25 11:30N 42°23' W 071°03'1606.2
2018-May-25 11:30N 42°22' W 071°02'0 0.0
2018-May-25 11:00N 42°22' W 071°02'0 0.0
2018-May-25 10:31N 42°22' W 071°02'0 0.0
2018-May-25 10:01N 42°22' W 071°02'1034451.9
2018-May-25 10:00N 42°24' W 070°49'1019.0
2018-May-25 09:30N 42°22' W 071°02'5227.8
2018-May-25 09:29N 42°21' W 070°56'5 9.7
2018-May-25 09:01N 42°22' W 071°02'057.0
2018-May-25 09:00N 42°22' W 071°02'0 0.0
2018-May-25 08:30N 42°22' W 071°02'0 0.0
2018-May-25 08:00N 42°22' W 071°02'0 0.0
2018-May-25 07:30N 42°22' W 071°02'0 0.0
2018-May-25 07:00N 42°22' W 071°02'0 0.0
2018-May-25 06:30N 42°22' W 071°02'0 0.0
2018-May-25 06:00N 42°22' W 071°02'0 0.0
2018-May-25 05:30N 42°22' W 071°02'0 0.0
2018-May-25 05:00N 42°22' W 071°02'0 0.0
2018-May-25 04:30N 42°22' W 071°02'0 0.0
2018-May-25 04:00N 42°22' W 071°02'0 0.0
2018-May-25 03:30N 42°22' W 071°02'043.2
2018-May-25 03:30N 42°22' W 071°02'0 0.0
2018-May-25 03:00N 42°22' W 071°02'0 0.0
2018-May-25 02:30N 42°22' W 071°02'0 0.0
2018-May-25 02:01N 42°22' W 071°02'0 0.0
2018-May-25 01:30N 42°22' W 071°02'01243.3
2018-May-25 01:30N 42°21' W 071°02'0 0.7
2018-May-25 01:00N 42°22' W 071°02'0 0.0
2018-May-25 00:30N 42°22' W 071°02'35470.4
2018-May-25 00:30N 42°20' W 070°59'3 6.1
2018-May-25 00:00N 42°22' W 071°02'1 2.4
2018-May-24 23:30N 42°21' W 071°01'510.0
2018-May-24 23:00N 42°22' W 070°55'518690.5
2018-May-24 23:00N 42°22' W 071°02'3 6.2
2018-May-24 22:30N 42°20' W 070°58'311125.1
2018-May-24 22:30N 42°22' W 071°02'0 0.0
2018-May-24 22:00N 42°22' W 071°02'0 0.0
2018-May-24 21:30N 42°22' W 071°02'0 0.0
2018-May-24 21:00N 42°22' W 071°02'021.6
2018-May-24 21:00N 42°22' W 071°02'0 0.0
2018-May-24 20:31N 42°22' W 071°02'0 0.0
2018-May-24 20:00N 42°22' W 071°02'0 0.0
2018-May-24 19:30N 42°22' W 071°02'0 0.0
2018-May-24 19:00N 42°22' W 071°02'0 0.0
2018-May-24 18:30N 42°22' W 071°02'066.7
2018-May-24 18:30N 42°22' W 071°02'0 0.0
2018-May-24 18:00N 42°22' W 071°02'0 0.0
2018-May-24 17:30N 42°22' W 071°02'0 0.0
2018-May-24 17:00N 42°22' W 071°02'0 0.0
2018-May-24 16:30N 42°22' W 071°02'0 0.0
2018-May-24 16:00N 42°22' W 071°02'0 0.0
2018-May-24 15:31N 42°22' W 071°02'0 0.0
2018-May-24 15:00N 42°22' W 071°02'0 0.0
2018-May-24 14:30N 42°22' W 071°02'064.8
2018-May-24 14:30N 42°22' W 071°02'0 0.0
2018-May-24 14:01N 42°22' W 071°02'0 0.0
2018-May-24 13:30N 42°22' W 071°02'0 0.0
2018-May-24 09:00N 42°22' W 071°02'1 1.8
2018-May-24 08:30N 42°21' W 071°01'1 1.8
2018-May-24 08:01N 42°22' W 071°02'0 0.0
2018-May-24 07:30N 42°22' W 071°02'046.1
2018-May-24 07:30N 42°22' W 071°02'0 0.0
2018-May-24 07:00N 42°22' W 071°02'0 0.0
2018-May-24 06:30N 42°22' W 071°02'0 0.0
2018-May-24 06:00N 42°22' W 071°02'0 0.0
2018-May-24 05:30N 42°22' W 071°02'0 0.0
2018-May-24 05:00N 42°22' W 071°02'0 0.0
2018-May-24 04:30N 42°22' W 071°02'0 0.4
2018-May-24 04:29N 42°22' W 071°02'0 0.0
2018-May-24 04:00N 42°22' W 071°02'064.8
2018-May-24 04:00N 42°22' W 071°02'0 0.0
2018-May-24 03:30N 42°22' W 071°02'0 0.0
2018-May-24 03:00N 42°22' W 071°02'0 0.0
2018-May-24 02:30N 42°22' W 071°02'0 0.0
2018-May-24 02:00N 42°22' W 071°02'0 0.0
2018-May-24 01:30N 42°22' W 071°02'0 0.0
2018-May-24 01:01N 42°22' W 071°02'0 7.2
2018-May-24 01:00N 42°22' W 071°02'0 0.0
2018-May-24 00:31N 42°22' W 071°02'0 0.0
2018-May-24 00:00N 42°22' W 071°02'519199.4
2018-May-24 00:00N 42°22' W 070°55'510.6
2018-May-23 23:30N 42°22' W 071°02'21226.7
2018-May-23 23:30N 42°20' W 070°60'2 4.8
2018-May-23 23:00N 42°22' W 071°02'12144.4
2018-May-23 23:00N 42°21' W 071°01'0 0.8
2018-May-23 22:30N 42°21' W 071°01'1295.4
2018-May-23 22:30N 42°22' W 071°02'0 0.0
2018-May-23 22:00N 42°22' W 071°02'013.4
2018-May-23 22:00N 42°22' W 071°02'0 0.0
2018-May-23 21:30N 42°22' W 071°02'026.9
2018-May-23 21:30N 42°22' W 071°02'0 0.0
2018-May-23 21:00N 42°22' W 071°02'1 1.6
2018-May-23 20:30N 42°21' W 071°01'1 1.6
2018-May-23 20:01N 42°22' W 071°02'0 0.0
2018-May-23 19:30N 42°22' W 071°02'917.6
2018-May-23 19:01N 42°24' W 070°51'96293.8
2018-May-23 19:00N 42°22' W 071°02'0 0.0
2018-May-23 18:31N 42°22' W 071°02'0 0.0
2018-May-23 18:00N 42°22' W 071°02'0 0.0
2018-May-23 17:30N 42°22' W 071°02'0 0.0
2018-May-23 17:00N 42°22' W 071°02'0 0.0
2018-May-23 16:30N 42°22' W 071°02'0 0.0
2018-May-23 16:00N 42°22' W 071°02'0 0.0
2018-May-23 15:30N 42°22' W 071°02'0 0.0
2018-May-23 15:00N 42°22' W 071°02'0 0.0
2018-May-23 14:30N 42°22' W 071°02'0 0.0
2018-May-23 14:01N 42°22' W 071°02'0 0.0
2018-May-23 13:30N 42°22' W 071°02'0 0.0
2018-May-23 13:01N 42°22' W 071°02'0 0.0
2018-May-23 12:30N 42°22' W 071°02'0 0.0
2018-May-23 12:00N 42°22' W 071°02'1 2.3
2018-May-23 11:30N 42°23' W 071°03'1421.1
2018-May-23 11:30N 42°22' W 071°02'0 0.0
2018-May-23 11:00N 42°22' W 071°02'0 1.0
2018-May-23 10:30N 42°21' W 071°02'01753.2
2018-May-23 10:30N 42°22' W 071°02'0 0.0
2018-May-23 10:00N 42°22' W 071°02'613.0
2018-May-23 09:31N 42°23' W 070°53'67736.7
2018-May-23 09:30N 42°22' W 071°02'1019.5
2018-May-23 09:00N 42°24' W 070°49'1019.6
2018-May-23 08:30N 42°22' W 071°02'612.8
2018-May-23 08:00N 42°24' W 070°54'623106.8
2018-May-23 08:00N 42°22' W 071°02'612.8
2018-May-23 07:30N 42°23' W 070°54'6853.5
2018-May-23 07:30N 42°22' W 071°02'612.8
2018-May-23 07:00N 42°23' W 070°54'6757.7
2018-May-23 07:00N 42°22' W 071°02'612.3
2018-May-23 06:30N 42°23' W 070°54'6136.5
2018-May-23 06:27N 42°22' W 071°02'818.9
2018-May-23 06:00N 42°24' W 070°51'81595.8
2018-May-23 06:00N 42°22' W 071°02'0 0.0
2018-May-23 05:30N 42°22' W 071°02'0 0.0
2018-May-23 05:00N 42°22' W 071°02'0 0.0
2018-May-23 04:30N 42°22' W 071°02'0 0.0
2018-May-23 04:00N 42°22' W 071°02'064.8
2018-May-23 04:00N 42°22' W 071°02'0 0.0
2018-May-23 03:30N 42°22' W 071°02'0 0.0
2018-May-23 03:00N 42°22' W 071°02'0 0.0
2018-May-23 02:30N 42°22' W 071°02'0 0.0
2018-May-23 02:00N 42°22' W 071°02'0 0.0
2018-May-23 01:30N 42°22' W 071°02'0 0.0
2018-May-23 01:01N 42°22' W 071°02'0 0.0
2018-May-23 00:30N 42°22' W 071°02'064.8
2018-May-23 00:30N 42°22' W 071°02'0 0.0
2018-May-23 00:00N 42°22' W 071°02'0 0.0
2018-May-22 23:30N 42°22' W 071°02'0 0.0
2018-May-22 23:00N 42°22' W 071°02'0 3.8
2018-May-22 23:00N 42°22' W 071°02'0 0.0
2018-May-22 22:30N 42°22' W 071°02'0 0.0
2018-May-22 22:00N 42°22' W 071°02'1 1.7
2018-May-22 21:30N 42°22' W 071°03'13042.1
2018-May-22 21:30N 42°22' W 071°02'4 8.7
2018-May-22 21:00N 42°21' W 070°56'4599.9
2018-May-22 21:00N 42°22' W 071°02'0 0.0
2018-May-22 20:30N 42°22' W 071°02'4 8.8
2018-May-22 20:00N 42°21' W 070°56'415953.1
2018-May-22 20:00N 42°22' W 071°02'0 0.0
2018-May-22 19:30N 42°22' W 071°02'14845.8
2018-May-22 19:30N 42°21' W 071°01'1 2.7
2018-May-22 19:00N 42°22' W 071°02'0 0.0
2018-May-22 18:30N 42°22' W 071°02'0 0.0
2018-May-22 18:00N 42°22' W 071°02'064.8
2018-May-22 18:00N 42°22' W 071°02'0 0.0
2018-May-22 17:30N 42°22' W 071°02'0 7.4
2018-May-22 17:30N 42°22' W 071°02'0 0.0
2018-May-22 17:00N 42°22' W 071°02'0 3.8
2018-May-22 17:00N 42°22' W 071°02'0 0.0
2018-May-22 16:30N 42°22' W 071°02'013.0
2018-May-22 16:30N 42°22' W 071°02'0 0.0
2018-May-22 16:00N 42°22' W 071°02'0 3.8
2018-May-22 16:00N 42°22' W 071°02'0 0.0
2018-May-22 15:30N 42°22' W 071°02'0 4.4
2018-May-22 15:30N 42°22' W 071°02'0 0.0
2018-May-22 15:00N 42°22' W 071°02'013.0
2018-May-22 15:00N 42°22' W 071°02'0 0.0
2018-May-22 14:30N 42°22' W 071°02'0 4.1
2018-May-22 14:30N 42°22' W 071°02'0 0.0
2018-May-22 14:01N 42°22' W 071°02'021.6
2018-May-22 14:00N 42°22' W 071°02'0 0.0
2018-May-22 13:30N 42°22' W 071°02'0 0.0
2018-May-22 13:00N 42°22' W 071°02'0 0.0
2018-May-22 12:30N 42°22' W 071°02'064.8
2018-May-22 12:30N 42°22' W 071°02'0 0.0
2018-May-22 12:00N 42°22' W 071°02'0 4.3
2018-May-22 12:00N 42°22' W 071°02'0 0.0
2018-May-22 11:30N 42°22' W 071°02'0 0.0
2018-May-22 11:00N 42°22' W 071°02'0 5.9
2018-May-22 11:00N 42°22' W 071°02'0 0.0
2018-May-22 10:30N 42°22' W 071°02'010.8
2018-May-22 10:30N 42°22' W 071°02'0 0.0
2018-May-22 10:00N 42°22' W 071°02'0 4.6
2018-May-22 10:00N 42°22' W 071°02'0 0.0
2018-May-22 09:30N 42°22' W 071°02'0 4.1
2018-May-22 09:30N 42°22' W 071°02'0 0.0
2018-May-22 09:01N 42°22' W 071°02'010.8
2018-May-22 09:00N 42°22' W 071°02'0 0.0
2018-May-22 08:30N 42°22' W 071°02'918.3
2018-May-22 08:01N 42°24' W 070°50'92744.8
2018-May-22 08:00N 42°22' W 071°02'4 8.6
2018-May-22 07:30N 42°21' W 070°56'47694.5
2018-May-22 07:30N 42°22' W 071°02'0 0.0
2018-May-22 07:00N 42°22' W 071°02'188.8
2018-May-22 07:00N 42°23' W 071°03'1 2.2
2018-May-22 06:31N 42°22' W 071°02'0377.2
2018-May-22 06:30N 42°22' W 071°02'0 0.4
2018-May-22 06:00N 42°22' W 071°02'021.6
2018-May-22 06:00N 42°22' W 071°02'0 0.0
2018-May-22 05:31N 42°22' W 071°02'0 3.4
2018-May-22 05:30N 42°22' W 071°02'0 0.0
2018-May-22 05:00N 42°22' W 071°02'0 0.0
2018-May-22 04:30N 42°22' W 071°02'0 0.0
2018-May-22 04:00N 42°22' W 071°02'0 8.1
2018-May-22 04:00N 42°22' W 071°02'0 0.0
2018-May-22 03:30N 42°22' W 071°02'064.8
2018-May-22 03:30N 42°22' W 071°02'0 0.0
2018-May-22 03:00N 42°22' W 071°02'0 6.5
2018-May-22 03:00N 42°22' W 071°02'0 0.0
2018-May-22 02:30N 42°22' W 071°02'0 0.0
2018-May-22 02:00N 42°22' W 071°02'0 0.0
2018-May-22 01:30N 42°22' W 071°02'064.8
2018-May-22 01:30N 42°22' W 071°02'0 0.0
2018-May-22 01:00N 42°22' W 071°02'064.8
2018-May-22 01:00N 42°22' W 071°02'0 0.0
2018-May-22 00:30N 42°22' W 071°02'0 0.0
2018-May-22 00:00N 42°22' W 071°02'0 0.0
2018-May-21 23:30N 42°22' W 071°02'013.0
2018-May-21 23:30N 42°22' W 071°02'0 0.0
2018-May-21 23:00N 42°22' W 071°02'064.8
2018-May-21 23:00N 42°22' W 071°02'0 0.0
2018-May-21 22:31N 42°22' W 071°02'0 3.7
2018-May-21 22:30N 42°22' W 071°02'0 0.0
2018-May-21 22:00N 42°22' W 071°02'0 0.0
2018-May-21 21:30N 42°22' W 071°02'010.8
2018-May-21 21:30N 42°22' W 071°02'0 0.0
2018-May-21 21:01N 42°22' W 071°02'0 4.1
2018-May-21 21:00N 42°22' W 071°02'0 0.0
2018-May-21 20:31N 42°22' W 071°02'0 7.2
2018-May-21 20:30N 42°22' W 071°02'4 7.7
2018-May-21 20:01N 42°20' W 070°57'41059.8
2018-May-21 20:00N 42°22' W 071°02'816.6
2018-May-21 19:30N 42°23' W 070°51'84947.6
2018-May-21 19:30N 42°22' W 071°02'0 0.0
2018-May-21 19:00N 42°22' W 071°02'7162.1
2018-May-21 18:58N 42°21' W 070°52'715.8
2018-May-21 18:30N 42°22' W 071°02'2519.1
2018-May-21 18:30N 42°20' W 070°59'2 4.7
2018-May-21 18:01N 42°22' W 071°02'0 0.0
2018-May-21 17:30N 42°22' W 071°02'0 0.0
2018-May-21 17:00N 42°22' W 071°02'043.2
2018-May-21 17:00N 42°22' W 071°02'0 0.0
2018-May-21 16:30N 42°22' W 071°02'0 0.0
2018-May-21 16:01N 42°22' W 071°02'066.7
2018-May-21 16:01N 42°22' W 071°02'0 0.0
2018-May-21 15:30N 42°22' W 071°02'0 0.0
2018-May-21 15:00N 42°22' W 071°02'0 0.0
2018-May-21 14:31N 42°22' W 071°02'0 4.6
2018-May-21 14:30N 42°22' W 071°02'0 0.0
2018-May-21 14:00N 42°22' W 071°02'0 0.0
2018-May-21 13:31N 42°22' W 071°02'0 0.0
2018-May-21 13:01N 42°22' W 071°02'11613.4
2018-May-21 13:00N 42°23' W 071°03'3 5.9
2018-May-21 12:30N 42°21' W 071°00'2 3.2
2018-May-21 12:00N 42°22' W 071°02'0 0.0
2018-May-21 11:30N 42°22' W 071°02'73034.0
2018-May-21 11:30N 42°23' W 070°53'3 6.4
2018-May-21 11:00N 42°24' W 070°49'1017718.7
2018-May-21 11:00N 42°22' W 071°02'0 0.0
2018-May-21 10:30N 42°22' W 071°02'0 0.3
2018-May-21 10:00N 42°22' W 071°02'0522.3
2018-May-21 10:00N 42°22' W 071°02'0 0.0
2018-May-21 09:30N 42°22' W 071°02'0 0.0
2018-May-21 09:00N 42°22' W 071°02'0 0.0
2018-May-21 08:31N 42°22' W 071°02'0 3.1
2018-May-21 08:30N 42°22' W 071°02'0 0.0
2018-May-21 08:00N 42°22' W 071°02'0 0.0
2018-May-21 07:30N 42°22' W 071°02'0 0.0
2018-May-21 07:00N 42°22' W 071°02'0 4.2
2018-May-21 07:00N 42°22' W 071°02'0 0.0
2018-May-21 06:30N 42°22' W 071°02'064.8
2018-May-21 06:30N 42°22' W 071°02'0 0.0
2018-May-21 06:00N 42°22' W 071°02'0 0.0
2018-May-21 05:30N 42°22' W 071°02'0 7.2
2018-May-21 05:30N 42°22' W 071°02'0 0.0
2018-May-21 05:00N 42°22' W 071°02'0 5.4
2018-May-21 05:00N 42°22' W 071°02'0 0.0
2018-May-21 04:30N 42°22' W 071°02'064.8
2018-May-21 04:30N 42°22' W 071°02'0 0.0
2018-May-21 04:00N 42°22' W 071°02'032.4
2018-May-21 04:00N 42°22' W 071°02'0 0.0
2018-May-21 03:30N 42°22' W 071°02'0 0.0
2018-May-21 03:01N 42°22' W 071°02'064.8
2018-May-21 03:01N 42°22' W 071°02'0 0.0
2018-May-21 02:30N 42°22' W 071°02'0 3.8
2018-May-21 02:30N 42°22' W 071°02'0 0.0
2018-May-21 02:00N 42°22' W 071°02'0 0.0
2018-May-21 01:30N 42°22' W 071°02'0 0.0
2018-May-21 01:00N 42°22' W 071°02'0 0.0
2018-May-21 00:31N 42°22' W 071°02'064.8
2018-May-21 00:31N 42°22' W 071°02'0 0.0
2018-May-21 00:00N 42°22' W 071°02'0 0.0
2018-May-20 23:30N 42°22' W 071°02'064.8
2018-May-20 23:30N 42°22' W 071°02'0 0.0
2018-May-20 23:00N 42°22' W 071°02'0 0.0
2018-May-20 22:30N 42°22' W 071°02'0 1.0
2018-May-20 22:30N 42°22' W 071°02'0 0.0
2018-May-20 22:00N 42°22' W 071°02'0 0.0
2018-May-20 21:30N 42°22' W 071°02'0 0.0
2018-May-20 21:01N 42°22' W 071°02'0 0.0
2018-May-20 20:31N 42°22' W 071°02'064.8
2018-May-20 20:31N 42°22' W 071°02'0 0.0
2018-May-20 20:00N 42°22' W 071°02'0 0.0
2018-May-20 19:30N 42°22' W 071°02'0 0.0
2018-May-20 19:00N 42°22' W 071°02'0 0.0
2018-May-20 18:30N 42°22' W 071°02'0 0.0
2018-May-20 18:00N 42°22' W 071°02'0 0.0
2018-May-20 17:30N 42°22' W 071°02'064.8
2018-May-20 17:30N 42°22' W 071°02'0 0.0
2018-May-20 17:00N 42°22' W 071°02'0 0.0
2018-May-20 16:30N 42°22' W 071°02'0 0.0
2018-May-20 16:01N 42°22' W 071°02'064.8
2018-May-20 16:00N 42°22' W 071°02'0 0.0
2018-May-20 15:30N 42°22' W 071°02'0 0.0
2018-May-20 15:00N 42°22' W 071°02'043.2
2018-May-20 15:00N 42°22' W 071°02'0 0.0
2018-May-20 14:30N 42°22' W 071°02'064.8
2018-May-20 14:30N 42°22' W 071°02'0 0.0
2018-May-20 14:00N 42°22' W 071°02'0 0.0
2018-May-20 13:30N 42°22' W 071°02'0 0.0
2018-May-20 13:00N 42°22' W 071°02'0 0.0
2018-May-20 12:30N 42°22' W 071°02'043.2
2018-May-20 12:30N 42°22' W 071°02'0 0.0
2018-May-20 12:00N 42°22' W 071°02'0 0.0
2018-May-20 11:30N 42°22' W 071°02'4 7.8
2018-May-20 11:00N 42°20' W 070°57'2 4.6
2018-May-20 10:30N 42°22' W 070°55'4 8.7
2018-May-20 10:00N 42°24' W 070°50'93624.9
2018-May-20 10:00N 42°22' W 071°02'0 0.0
2018-May-20 09:30N 42°22' W 071°02'544.2
2018-May-20 09:24N 42°21' W 070°56'511.5
2018-May-20 09:00N 42°22' W 071°02'026.9
2018-May-20 09:00N 42°22' W 071°02'0 0.0
2018-May-20 08:30N 42°22' W 071°02'3 5.2
2018-May-20 08:00N 42°20' W 070°59'3278.4
2018-May-20 07:59N 42°22' W 071°02'0 0.0
2018-May-20 07:30N 42°22' W 071°02'0 0.0
2018-May-20 07:01N 42°22' W 071°02'016.0
2018-May-20 07:01N 42°22' W 071°02'0 0.0
2018-May-20 06:30N 42°22' W 071°02'0 0.0
2018-May-20 06:00N 42°22' W 071°02'0 0.0
2018-May-20 05:30N 42°22' W 071°02'026.9
2018-May-20 05:30N 42°22' W 071°02'0 0.0
2018-May-20 05:00N 42°22' W 071°02'3 5.2
2018-May-20 04:30N 42°20' W 070°59'34586.2
2018-May-20 04:30N 42°22' W 071°02'0 0.0
2018-May-20 04:00N 42°22' W 071°02'0 0.0
2018-May-20 03:30N 42°22' W 071°02'0 0.0
2018-May-20 03:00N 42°22' W 071°02'026.9
2018-May-20 03:00N 42°22' W 071°02'0 0.0
2018-May-20 02:30N 42°22' W 071°02'0 0.0
2018-May-20 02:01N 42°22' W 071°02'0 0.1
2018-May-20 01:30N 42°22' W 071°02'0158.6
2018-May-20 01:30N 42°22' W 071°02'0 0.0
2018-May-20 01:00N 42°22' W 071°02'4 7.1
2018-May-20 00:30N 42°20' W 070°58'412682.0
2018-May-20 00:30N 42°22' W 071°02'0 0.0
2018-May-20 00:00N 42°22' W 071°02'0 0.0
2018-May-19 23:30N 42°22' W 071°02'0 0.0
2018-May-19 23:00N 42°22' W 071°02'0 0.0
2018-May-19 22:30N 42°22' W 071°02'0 0.0
2018-May-19 22:00N 42°22' W 071°02'0 0.0
2018-May-19 21:30N 42°22' W 071°02'0 0.0
2018-May-19 21:00N 42°22' W 071°02'4 8.5
2018-May-19 20:30N 42°21' W 070°56'4 8.4
2018-May-19 20:00N 42°22' W 071°02'0 0.0
2018-May-19 19:30N 42°22' W 071°02'0 0.0
2018-May-19 19:00N 42°22' W 071°02'0 5.9
2018-May-19 19:00N 42°22' W 071°02'0 0.0
2018-May-19 18:30N 42°22' W 071°02'032.4
2018-May-19 18:30N 42°22' W 071°02'0 0.0
2018-May-19 18:00N 42°22' W 071°02'0 0.0
2018-May-19 17:31N 42°22' W 071°02'0 0.0
2018-May-19 17:00N 42°22' W 071°02'0 0.0
2018-May-19 16:30N 42°22' W 071°02'0 0.0
2018-May-19 16:00N 42°22' W 071°02'0 0.0
2018-May-19 15:30N 42°22' W 071°02'0 0.0
2018-May-19 15:00N 42°22' W 071°02'0 0.0
2018-May-19 14:30N 42°22' W 071°02'0 0.0
2018-May-19 14:00N 42°22' W 071°02'0 0.0
2018-May-19 13:30N 42°22' W 071°02'0 2.9
2018-May-19 13:30N 42°22' W 071°02'0 0.0
2018-May-19 13:00N 42°22' W 071°02'064.8
2018-May-19 13:00N 42°22' W 071°02'0 0.0
2018-May-19 12:30N 42°22' W 071°02'0 0.0
2018-May-19 12:00N 42°22' W 071°02'0 0.0
2018-May-19 11:30N 42°22' W 071°02'043.2
2018-May-19 11:30N 42°22' W 071°02'0 0.0
2018-May-19 11:00N 42°22' W 071°02'918.7
2018-May-19 10:31N 42°24' W 070°50'93709.5
2018-May-19 10:30N 42°22' W 071°02'0 0.0
2018-May-19 10:01N 42°22' W 071°02'103349.0
2018-May-19 10:00N 42°23' W 070°48'2 3.3
2018-May-19 09:30N 42°24' W 070°49'103455.7
2018-May-19 09:30N 42°22' W 071°02'4 8.4
2018-May-19 09:00N 42°21' W 070°56'4 8.4
2018-May-19 08:30N 42°22' W 071°02'12448.3
2018-May-19 08:30N 42°21' W 071°02'1 1.4
2018-May-19 08:00N 42°22' W 071°02'0 0.0
2018-May-19 07:30N 42°22' W 071°02'0 0.0
2018-May-19 07:00N 42°22' W 071°02'021.6
2018-May-19 07:00N 42°22' W 071°02'0 0.0
2018-May-19 06:30N 42°22' W 071°02'0 0.0
2018-May-19 06:00N 42°22' W 071°02'064.8
2018-May-19 06:00N 42°22' W 071°02'0 0.0
2018-May-19 05:30N 42°22' W 071°02'064.8
2018-May-19 05:30N 42°22' W 071°02'0 0.0
2018-May-19 05:01N 42°22' W 071°02'0 0.0
2018-May-19 04:30N 42°22' W 071°02'0 1.6
2018-May-19 04:30N 42°22' W 071°02'0 0.0
2018-May-19 04:00N 42°22' W 071°02'0 0.0
2018-May-19 03:30N 42°22' W 071°02'0 0.0
2018-May-19 03:00N 42°22' W 071°02'0 0.0
2018-May-19 02:30N 42°22' W 071°02'71859.8
2018-May-19 02:30N 42°23' W 070°52'714.7
2018-May-19 02:01N 42°22' W 071°02'461.0
2018-May-19 01:56N 42°21' W 070°56'410.1
2018-May-19 01:30N 42°22' W 071°02'031.9
2018-May-19 01:30N 42°22' W 071°02'0 0.0
2018-May-19 01:00N 42°22' W 071°02'0 0.4
2018-May-19 00:59N 42°22' W 071°02'0 0.0
2018-May-19 00:30N 42°22' W 071°02'026.9
2018-May-19 00:30N 42°22' W 071°02'0 0.0
2018-May-19 00:00N 42°22' W 071°02'0 0.0
2018-May-18 23:30N 42°22' W 071°02'3621.0
2018-May-18 23:30N 42°20' W 070°59'2 4.5
2018-May-18 23:00N 42°21' W 071°01'3 5.2
2018-May-18 22:30N 42°23' W 071°04'2813.4
2018-May-18 22:30N 42°22' W 071°02'0 0.2
2018-May-18 22:00N 42°22' W 071°02'2 4.9
2018-May-18 21:31N 42°20' W 070°59'39039.8
2018-May-18 21:31N 42°22' W 071°02'0 0.0
2018-May-18 21:01N 42°22' W 071°02'71858.2
2018-May-18 21:00N 42°23' W 070°52'714.5
2018-May-18 20:30N 42°22' W 071°02'0 0.0
2018-May-18 20:01N 42°22' W 071°02'1386.0
2018-May-18 20:00N 42°21' W 071°02'1 2.4
2018-May-18 19:31N 42°22' W 071°02'0 0.0
2018-May-18 19:00N 42°22' W 071°02'4 7.3
2018-May-18 18:30N 42°20' W 070°57'415891.6
2018-May-18 18:30N 42°22' W 071°03'1 1.1
2018-May-18 18:00N 42°23' W 071°03'2 4.3
2018-May-18 17:31N 42°21' W 071°02'14372.4
2018-May-18 17:31N 42°22' W 071°02'1 1.7
2018-May-18 17:00N 42°21' W 071°02'1 1.7
2018-May-18 16:30N 42°22' W 071°02'064.8
2018-May-18 16:30N 42°22' W 071°02'0 0.0
2018-May-18 16:00N 42°22' W 071°02'0 0.0
2018-May-18 15:30N 42°22' W 071°02'0 0.0
2018-May-18 15:00N 42°22' W 071°02'043.2
2018-May-18 15:00N 42°22' W 071°02'0 0.0
2018-May-18 14:30N 42°22' W 071°02'0 0.0
2018-May-18 14:00N 42°22' W 071°02'0 0.0
2018-May-18 13:30N 42°22' W 071°02'043.2
2018-May-18 13:30N 42°22' W 071°02'0 0.0
2018-May-18 13:00N 42°22' W 071°02'1 2.7
2018-May-18 12:30N 42°23' W 071°03'14849.9
2018-May-18 12:30N 42°22' W 071°02'0 0.0
2018-May-18 12:01N 42°22' W 071°02'0 0.9
2018-May-18 12:00N 42°22' W 071°02'0 0.0
2018-May-18 11:31N 42°22' W 071°02'1 1.0
2018-May-18 11:01N 42°21' W 071°02'4 7.0
2018-May-18 10:30N 42°20' W 070°57'413734.4
2018-May-18 10:30N 42°22' W 071°02'0 0.0
2018-May-18 10:01N 42°22' W 071°02'9670.1
2018-May-18 10:00N 42°24' W 070°49'919.4
2018-May-18 09:30N 42°22' W 071°02'  

Dump ship's entire track history